Time;durP1;ratioP1;P1;durP2;ratioP2;P2;SDS_P1;SDS_P2;PMS_P1;PMS_P2;Temp;Humidity;BMP_temperature;BMP_pressure;BME280_temperature;BME280_humidity;BME280_pressure;Samples;Min_cycle;Max_cycle;Signal;HPM_P1;HPM_P2
2022/06/14 00:01:50;;;;;;;5.63;1.90;;;;;;;13.07;100.00;99674.56;5116472;28;20191;-80
2022/06/14 00:04:19;;;;;;;2.50;1.70;;;;;;;13.16;100.00;99677.47;5108055;28;20310;-81
2022/06/14 00:06:48;;;;;;;5.73;1.87;;;;;;;13.31;100.00;99680.94;5110675;28;20199;-80
2022/06/14 00:09:16;;;;;;;4.33;1.77;;;;;;;13.31;100.00;99683.59;5050883;28;20189;-81
2022/06/14 00:11:46;;;;;;;3.30;1.80;;;;;;;13.27;100.00;99687.41;5053645;28;20197;-81
2022/06/14 00:14:15;;;;;;;3.00;1.50;;;;;;;13.33;100.00;99688.84;5046388;28;20197;-81
2022/06/14 00:16:44;;;;;;;2.20;1.50;;;;;;;13.27;100.00;99681.25;5045771;28;20201;-81
2022/06/14 00:19:14;;;;;;;2.17;1.67;;;;;;;13.18;100.00;99685.34;5038754;28;20185;-80
2022/06/14 00:21:42;;;;;;;5.90;1.70;;;;;;;13.24;100.00;99678.81;5047451;28;20192;-80
2022/06/14 00:24:13;;;;;;;4.00;1.93;;;;;;;13.25;100.00;99678.69;5050719;28;20217;-80
2022/06/14 00:26:41;;;;;;;3.47;1.63;;;;;;;13.02;100.00;99668.69;5060055;28;20203;-81
2022/06/14 00:29:09;;;;;;;3.93;1.80;;;;;;;13.02;100.00;99674.00;5107465;28;20206;-80
2022/06/14 00:31:37;;;;;;;3.00;1.73;;;;;;;12.89;100.00;99674.81;5108670;27;20221;-80
2022/06/14 00:34:06;;;;;;;5.80;1.87;;;;;;;12.95;100.00;99678.88;5127502;27;20221;-80
2022/06/14 00:36:37;;;;;;;4.53;1.70;;;;;;;12.93;100.00;99680.75;5132499;27;20198;-81
2022/06/14 00:39:08;;;;;;;3.60;1.87;;;;;;;12.73;100.00;99682.06;5135995;27;20193;-80
2022/06/14 00:41:40;;;;;;;7.97;1.70;;;;;;;12.61;100.00;99681.06;5132287;27;20326;-80
2022/06/14 00:44:13;;;;;;;3.80;2.27;;;;;;;12.52;100.00;99681.63;5135973;27;20229;-81
2022/06/14 00:46:50;;;;;;;4.40;1.83;;;;;;;12.55;100.00;99680.59;5131760;27;20194;-80
2022/06/14 00:49:23;;;;;;;3.20;1.90;;;;;;;12.36;100.00;99688.88;5136045;27;20197;-81
2022/06/14 00:51:57;;;;;;;4.83;2.00;;;;;;;12.32;100.00;99690.00;5131872;27;20671;-81
2022/06/14 00:54:31;;;;;;;2.73;2.00;;;;;;;12.39;100.00;99683.38;5132939;27;20196;-80
2022/06/14 00:57:06;;;;;;;3.57;1.97;;;;;;;12.35;100.00;99681.00;5080082;27;20706;-80
2022/06/14 00:59:40;;;;;;;3.83;1.73;;;;;;;12.42;100.00;99685.81;5082957;27;20205;-81
2022/06/14 01:02:15;;;;;;;3.13;1.80;;;;;;;12.40;100.00;99679.75;5133516;27;20362;-81
2022/06/14 01:04:45;;;;;;;3.87;1.70;;;;;;;12.42;100.00;99680.50;5133120;27;20225;-81
2022/06/14 01:07:20;;;;;;;3.70;1.67;;;;;;;12.40;100.00;99685.06;5128858;27;20200;-81
2022/06/14 01:09:58;;;;;;;6.03;1.73;;;;;;;12.21;100.00;99679.22;5136142;27;20217;-81
2022/06/14 01:12:32;;;;;;;4.10;1.93;;;;;;;11.99;100.00;99685.00;5132557;27;20250;-80
2022/06/14 01:15:09;;;;;;;6.77;2.47;;;;;;;11.79;100.00;99683.53;5132684;27;20194;-80
2022/06/14 01:17:41;;;;;;;6.10;1.93;;;;;;;11.84;100.00;99688.56;5130884;27;20189;-80
2022/06/14 01:20:12;;;;;;;3.37;1.90;;;;;;;11.94;100.00;99690.56;5135641;27;20225;-80
2022/06/14 01:22:43;;;;;;;5.60;2.17;;;;;;;11.96;100.00;99685.16;5096015;27;20315;-81
2022/06/14 01:25:12;;;;;;;3.43;2.00;;;;;;;12.12;100.00;99687.75;5135260;27;20222;-81
2022/06/14 01:27:42;;;;;;;6.30;1.80;;;;;;;12.05;100.00;99676.63;5129048;27;20191;-81
2022/06/14 01:30:15;;;;;;;3.73;1.67;;;;;;;12.23;100.00;99688.78;5131090;27;20641;-81
2022/06/14 01:32:47;;;;;;;3.00;2.00;;;;;;;12.00;100.00;99687.56;5126813;27;20226;-81
2022/06/14 01:35:19;;;;;;;4.20;1.97;;;;;;;11.88;100.00;99693.63;5131878;27;20194;-80
2022/06/14 01:37:53;;;;;;;4.47;2.00;;;;;;;11.73;100.00;99683.88;5127674;27;20191;-81
2022/06/14 01:40:31;;;;;;;2.30;1.77;;;;;;;11.78;100.00;99676.53;5133094;27;20269;-81
2022/06/14 01:43:40;;;;;;;2.23;1.70;;;;;;;11.66;100.00;99680.75;5080587;27;20198;-81
2022/06/14 01:46:23;;;;;;;3.57;1.90;;;;;;;11.66;100.00;99682.53;5118953;27;20198;-81
2022/06/14 01:51:50;;;;;;;2.77;1.80;;;;;;;11.79;100.00;99672.91;5131404;27;20270;-81
2022/06/14 01:51:59;;;;;;;4.80;2.50;;;;;;;11.67;100.00;99678.94;5133688;27;20205;-80
2022/06/14 01:54:40;;;;;;;4.00;1.93;;;;;;;11.41;100.00;99673.41;5129058;27;20257;-80
2022/06/14 01:57:13;;;;;;;4.50;2.37;;;;;;;11.46;100.00;99681.94;5130040;27;20194;-81
2022/06/14 01:59:49;;;;;;;4.50;1.93;;;;;;;11.45;100.00;99680.22;5129188;27;20475;-81
2022/06/14 02:02:27;;;;;;;3.87;1.93;;;;;;;11.16;100.00;99676.63;5135054;27;20249;-80
2022/06/14 02:05:04;;;;;;;3.67;2.37;;;;;;;10.98;100.00;99671.53;5127978;27;20245;-81
2022/06/14 02:07:42;;;;;;;4.17;2.20;;;;;;;10.54;100.00;99678.41;5125562;27;20197;-81
2022/06/14 02:10:19;;;;;;;4.00;1.83;;;;;;;10.39;100.00;99686.34;5132380;27;20225;-81
2022/06/14 02:12:56;;;;;;;3.43;2.50;;;;;;;10.32;100.00;99684.00;5131711;27;20194;-81
2022/06/14 02:15:31;;;;;;;4.17;2.27;;;;;;;10.52;100.00;99679.44;5125162;27;20209;-81
2022/06/14 02:18:11;;;;;;;3.27;2.43;;;;;;;10.55;100.00;99681.91;5124925;27;20202;-81
2022/06/14 02:20:48;;;;;;;5.97;2.03;;;;;;;10.51;100.00;99680.38;5130444;27;20197;-81
2022/06/14 02:23:17;;;;;;;3.07;2.10;;;;;;;10.53;100.00;99683.81;5118030;28;20212;-81
2022/06/14 02:25:53;;;;;;;5.67;2.27;;;;;;;10.72;100.00;99692.44;5129917;28;20274;-81
2022/06/14 02:28:26;;;;;;;3.63;2.40;;;;;;;10.74;100.00;99698.50;5129476;28;20202;-81
2022/06/14 02:30:58;;;;;;;4.67;2.30;;;;;;;10.80;100.00;99697.28;5129815;28;20205;-81
2022/06/14 02:33:33;;;;;;;3.17;2.10;;;;;;;10.77;100.00;99697.47;5133601;28;20257;-81
2022/06/14 02:36:07;;;;;;;2.50;1.97;;;;;;;10.86;100.00;99694.28;5128935;28;20200;-81
2022/06/14 02:38:43;;;;;;;6.40;2.60;;;;;;;10.60;100.00;99703.69;5131365;28;20233;-80
2022/06/14 02:41:19;;;;;;;4.97;2.33;;;;;;;10.63;100.00;99695.59;5124672;28;20221;-80
2022/06/14 02:43:54;;;;;;;5.50;2.47;;;;;;;10.86;100.00;99699.59;5134075;28;20194;-80
2022/06/14 02:46:31;;;;;;;3.33;2.37;;;;;;;10.78;100.00;99701.81;5128272;28;20213;-80
2022/06/14 02:49:05;;;;;;;3.10;2.27;;;;;;;10.60;100.00;99704.53;5131347;28;20231;-80
2022/06/14 02:51:38;;;;;;;3.83;2.20;;;;;;;10.63;100.00;99698.25;5126527;28;20225;-80
2022/06/14 02:54:12;;;;;;;3.90;2.60;;;;;;;10.61;100.00;99702.75;5134165;28;20277;-80
2022/06/14 02:56:48;;;;;;;4.93;2.30;;;;;;;10.64;100.00;99702.59;5128128;28;20212;-80
2022/06/14 02:59:21;;;;;;;4.73;2.00;;;;;;;10.54;100.00;99698.75;5122860;28;20194;-80
2022/06/14 03:01:55;;;;;;;4.30;2.17;;;;;;;10.66;100.00;99697.22;5130946;28;20195;-80
2022/06/14 03:04:29;;;;;;;3.67;2.10;;;;;;;10.65;100.00;99693.72;5131442;27;20213;-80
2022/06/14 03:07:04;;;;;;;2.67;1.97;;;;;;;10.60;100.00;99701.03;5136311;27;20704;-80
2022/06/14 03:09:36;;;;;;;4.43;2.17;;;;;;;10.54;100.00;99696.09;5137478;27;20232;-81
2022/06/14 03:12:18;;;;;;;3.63;2.07;;;;;;;10.55;100.00;99703.09;5130337;27;20212;-81
2022/06/14 03:15:00;;;;;;;4.10;1.97;;;;;;;10.72;100.00;99696.88;5132228;27;20194;-80
2022/06/14 03:17:44;;;;;;;5.77;2.17;;;;;;;10.53;100.00;99695.25;5133537;27;20194;-80
2022/06/14 03:20:28;;;;;;;4.00;2.13;;;;;;;10.50;100.00;99694.53;5134283;27;20614;-80
2022/06/14 03:23:02;;;;;;;4.37;2.20;;;;;;;10.41;100.00;99703.00;5131832;27;20371;-80
2022/06/14 03:25:39;;;;;;;4.30;2.17;;;;;;;10.52;100.00;99698.84;5131542;27;20714;-80
2022/06/14 03:28:14;;;;;;;4.93;2.30;;;;;;;10.62;100.00;99687.75;5130100;27;20192;-80
2022/06/14 03:30:46;;;;;;;6.33;2.60;;;;;;;10.46;100.00;99704.47;5132345;27;20198;-80
2022/06/14 03:33:22;;;;;;;4.93;2.40;;;;;;;10.51;100.00;99699.75;5137559;27;20245;-80
2022/06/14 03:35:52;;;;;;;7.07;3.03;;;;;;;10.31;100.00;99697.34;5134124;27;20212;-80
2022/06/14 03:38:26;;;;;;;5.53;3.27;;;;;;;10.03;100.00;99697.94;5071421;28;20279;-80
2022/06/14 03:40:55;;;;;;;8.23;3.50;;;;;;;10.15;100.00;99685.88;5069348;28;20192;-80
2022/06/14 03:43:25;;;;;;;8.77;3.07;;;;;;;10.13;100.00;99699.16;5068185;28;20192;-81
2022/06/14 03:46:00;;;;;;;7.50;3.13;;;;;;;10.02;100.00;99699.72;5071322;28;20224;-81
2022/06/14 03:48:30;;;;;;;4.63;2.93;;;;;;;9.91;100.00;99696.78;5069000;28;20203;-80
2022/06/14 03:51:09;;;;;;;6.20;2.43;;;;;;;9.87;100.00;99699.69;5065074;28;20280;-80
2022/06/14 03:54:01;;;;;;;8.00;2.57;;;;;;;9.91;100.00;99701.22;5072278;28;20196;-80
2022/06/14 03:56:44;;;;;;;4.63;2.20;;;;;;;9.87;100.00;99692.63;5095162;27;20194;-80
2022/06/14 03:59:40;;;;;;;4.20;2.20;;;;;;;9.62;100.00;99698.31;5137020;27;20660;-80
2022/06/14 04:02:16;;;;;;;6.17;2.30;;;;;;;9.72;100.00;99698.69;5130259;27;20182;-80
2022/06/14 04:04:52;;;;;;;4.97;2.33;;;;;;;9.58;100.00;99687.97;5125115;27;20204;-80
2022/06/14 04:07:33;;;;;;;4.53;2.33;;;;;;;9.60;100.00;99694.03;5133295;27;20222;-80
2022/06/14 04:10:06;;;;;;;4.80;2.30;;;;;;;9.76;100.00;99694.97;5129791;27;20194;-80
2022/06/14 04:12:43;;;;;;;3.27;2.33;;;;;;;9.70;100.00;99695.28;5133606;27;20195;-80
2022/06/14 04:15:22;;;;;;;4.53;2.00;;;;;;;9.96;100.00;99702.72;5129772;27;20648;-80
2022/06/14 04:17:58;;;;;;;5.20;2.20;;;;;;;9.94;100.00;99695.78;5130323;27;20198;-80
2022/06/14 04:20:33;;;;;;;8.73;2.50;;;;;;;10.10;100.00;99696.69;5133509;27;20194;-80
2022/06/14 04:23:11;;;;;;;4.07;2.30;;;;;;;9.98;100.00;99695.53;5130362;27;20201;-80
2022/06/14 04:25:44;;;;;;;3.63;2.23;;;;;;;10.11;100.00;99697.53;5129799;27;20225;-79
2022/06/14 04:28:20;;;;;;;4.43;2.10;;;;;;;10.13;100.00;99700.94;5084194;27;20209;-80
2022/06/14 04:30:56;;;;;;;4.90;2.20;;;;;;;10.24;100.00;99696.00;5128698;27;20248;-80
2022/06/14 04:33:30;;;;;;;3.40;2.20;;;;;;;10.39;100.00;99696.94;5132157;27;20226;-80
2022/06/14 04:36:05;;;;;;;4.20;2.20;;;;;;;10.51;100.00;99705.06;5128176;27;20197;-80
2022/06/14 04:38:38;;;;;;;4.00;2.37;;;;;;;10.59;100.00;99702.00;5136280;27;20190;-80
2022/06/14 04:41:09;;;;;;;7.37;2.40;;;;;;;10.85;100.00;99697.88;5132690;27;20190;-81
2022/06/14 04:43:42;;;;;;;2.93;2.40;;;;;;;10.88;100.00;99703.00;5130476;27;20202;-80
2022/06/14 04:46:18;;;;;;;6.13;2.67;;;;;;;10.87;100.00;99702.16;5128322;27;20225;-80
2022/06/14 04:48:53;;;;;;;2.73;2.43;;;;;;;11.09;100.00;99695.63;5131008;27;20193;-80
2022/06/14 04:51:28;;;;;;;5.70;2.63;;;;;;;10.94;100.00;99696.53;5064384;28;20238;-80
2022/06/14 04:54:04;;;;;;;3.17;2.50;;;;;;;11.10;100.00;99702.66;5069836;28;20196;-81
2022/06/14 04:56:40;;;;;;;5.53;2.60;;;;;;;11.16;100.00;99700.50;5067182;28;20196;-80
2022/06/14 04:59:12;;;;;;;5.00;2.40;;;;;;;11.17;100.00;99699.56;5066545;28;20203;-80
2022/06/14 05:01:47;;;;;;;5.40;2.80;;;;;;;11.22;100.00;99709.91;5064530;28;20231;-80
2022/06/14 05:04:21;;;;;;;5.53;2.67;;;;;;;11.32;100.00;99712.88;4993094;28;20214;-80
2022/06/14 05:06:55;;;;;;;4.90;2.67;;;;;;;11.43;100.00;99711.31;4988975;28;20218;-80
2022/06/14 05:09:27;;;;;;;4.23;2.83;;;;;;;11.67;100.00;99714.28;5003437;28;20284;-81
2022/06/14 05:12:03;;;;;;;5.13;2.63;;;;;;;11.68;100.00;99705.41;5068505;28;20208;-80
2022/06/14 05:14:37;;;;;;;4.77;2.47;;;;;;;11.85;100.00;99708.88;5071903;28;20204;-81
2022/06/14 05:17:12;;;;;;;5.67;2.57;;;;;;;11.85;100.00;99700.91;5068731;28;20200;-80
2022/06/14 05:19:49;;;;;;;7.53;2.50;;;;;;;11.90;100.00;99710.31;5066245;28;20207;-80
2022/06/14 05:22:23;;;;;;;4.83;2.87;;;;;;;11.84;100.00;99704.50;5091299;27;20202;-80
2022/06/14 05:24:51;;;;;;;4.70;2.70;;;;;;;12.01;100.00;99697.22;5127177;27;20198;-80
2022/06/14 05:27:35;;;;;;;3.67;2.70;;;;;;;12.00;100.00;99694.66;5130862;27;20302;-81
2022/06/14 05:30:09;;;;;;;5.50;2.90;;;;;;;12.15;100.00;99707.00;5130418;27;20276;-80
2022/06/14 05:32:46;;;;;;;4.60;2.77;;;;;;;12.12;100.00;99701.88;5071720;28;20219;-81
2022/06/14 05:35:24;;;;;;;5.37;3.03;;;;;;;12.32;100.00;99703.28;5071678;28;20198;-81
2022/06/14 05:37:57;;;;;;;3.93;2.57;;;;;;;12.39;100.00;99704.63;5066180;28;20203;-80
2022/06/14 05:40:32;;;;;;;3.63;2.90;;;;;;;12.42;100.00;99703.56;5069381;28;20219;-80
2022/06/14 05:43:14;;;;;;;6.13;2.90;;;;;;;12.44;100.00;99699.84;5071725;28;20188;-80
2022/06/14 05:45:45;;;;;;;5.10;2.80;;;;;;;12.60;100.00;99695.28;5067669;28;20203;-81
2022/06/14 05:48:22;;;;;;;6.33;2.83;;;;;;;12.71;100.00;99694.59;5066872;28;20243;-81
2022/06/14 05:50:56;;;;;;;4.87;3.00;;;;;;;12.80;100.00;99699.34;5102298;27;20182;-79
2022/06/14 05:53:30;;;;;;;3.47;2.63;;;;;;;13.00;100.00;99702.50;5124967;27;20194;-81
2022/06/14 05:56:09;;;;;;;5.20;2.70;;;;;;;13.00;100.00;99702.50;5131978;27;20194;-80
2022/06/14 05:58:43;;;;;;;8.17;2.77;;;;;;;12.99;100.00;99703.47;5124734;27;20205;-81
2022/06/14 06:01:18;;;;;;;6.43;3.10;;;;;;;12.93;100.00;99688.75;5129116;27;20198;-81
2022/06/14 06:03:54;;;;;;;3.53;2.93;;;;;;;13.12;100.00;99696.38;5131908;27;20243;-80
2022/06/14 06:06:27;;;;;;;8.27;2.67;;;;;;;13.17;100.00;99695.13;5124717;27;20206;-79
2022/06/14 06:09:01;;;;;;;5.43;2.90;;;;;;;13.28;100.00;99693.59;5134246;27;20193;-81
2022/06/14 06:11:37;;;;;;;5.57;2.83;;;;;;;13.43;100.00;99696.09;5130517;27;20200;-80
2022/06/14 06:14:12;;;;;;;4.67;2.60;;;;;;;13.44;100.00;99686.31;5129233;27;20232;-80
2022/06/14 06:16:45;;;;;;;5.97;2.70;;;;;;;13.54;100.00;99687.38;5127731;27;20194;-80
2022/06/14 06:19:22;;;;;;;3.93;2.47;;;;;;;13.22;100.00;99691.31;5126789;27;20198;-80
2022/06/14 06:21:57;;;;;;;4.97;2.30;;;;;;;13.59;100.00;99687.06;5126688;27;20186;-80
2022/06/14 06:24:33;;;;;;;5.80;2.50;;;;;;;13.51;100.00;99682.28;5128756;28;20205;-81
2022/06/14 06:27:08;;;;;;;4.07;2.30;;;;;;;13.94;100.00;99685.50;5131430;28;20209;-80
2022/06/14 06:29:47;;;;;;;4.00;2.30;;;;;;;14.22;100.00;99683.56;5134325;28;20277;-80
2022/06/14 06:32:16;;;;;;;3.77;2.20;;;;;;;14.33;100.00;99679.19;5127919;28;20214;-81
2022/06/14 06:34:47;;;;;;;4.07;2.27;;;;;;;14.41;100.00;99686.63;5130712;28;20212;-81
2022/06/14 06:37:19;;;;;;;4.23;2.20;;;;;;;14.67;100.00;99673.25;5130359;27;20281;-80
2022/06/14 06:39:51;;;;;;;5.13;1.93;;;;;;;14.87;100.00;99678.88;5134186;27;20202;-81
2022/06/14 06:42:27;;;;;;;6.03;2.20;;;;;;;15.04;100.00;99682.09;5032632;28;20193;-80
2022/06/14 06:45:04;;;;;;;3.03;1.93;;;;;;;15.01;100.00;99677.00;5032249;28;20207;-80
2022/06/14 06:47:36;;;;;;;7.23;2.10;;;;;;;15.02;100.00;99681.34;5029658;28;20228;-80
2022/06/14 06:50:22;;;;;;;2.67;1.77;;;;;;;15.00;100.00;99681.47;4999682;28;20285;-81
2022/06/14 06:52:56;;;;;;;4.97;1.87;;;;;;;15.25;100.00;99676.97;5027402;28;20220;-81
2022/06/14 06:55:35;;;;;;;5.33;2.20;;;;;;;15.16;100.00;99675.88;5028485;28;20202;-80
2022/06/14 06:58:09;;;;;;;4.17;1.83;;;;;;;15.06;100.00;99672.19;5032416;28;20205;-81
2022/06/14 07:00:40;;;;;;;9.90;2.20;;;;;;;15.26;100.00;99679.53;5090165;27;20213;-81
2022/06/14 07:03:17;;;;;;;8.77;2.30;;;;;;;15.58;100.00;99679.75;5137738;27;20194;-81
2022/06/14 07:05:51;;;;;;;4.57;1.90;;;;;;;15.49;100.00;99675.13;5134539;27;20201;-80
2022/06/14 07:08:24;;;;;;;4.93;2.20;;;;;;;15.55;100.00;99671.16;5128354;27;20226;-81
2022/06/14 07:10:55;;;;;;;4.10;2.20;;;;;;;15.86;100.00;99681.22;5131158;27;20202;-81
2022/06/14 07:13:33;;;;;;;4.73;1.90;;;;;;;16.07;100.00;99672.47;5137800;27;20205;-81
2022/06/14 07:16:06;;;;;;;5.07;2.00;;;;;;;16.09;100.00;99675.88;5137866;27;20249;-80
2022/06/14 07:18:42;;;;;;;4.87;2.50;;;;;;;16.11;100.00;99666.75;5137730;27;20190;-80
2022/06/14 07:21:17;;;;;;;6.10;2.13;;;;;;;16.17;100.00;99671.63;5129812;27;20233;-81
2022/06/14 07:23:51;;;;;;;5.73;2.27;;;;;;;16.00;100.00;99669.44;5131892;27;20662;-80
2022/06/14 07:26:25;;;;;;;4.80;2.30;;;;;;;16.35;100.00;99680.03;5128320;27;20213;-81
2022/06/14 07:29:03;;;;;;;4.80;1.80;;;;;;;16.34;100.00;99672.13;5134727;27;20190;-81
2022/06/14 07:31:38;;;;;;;5.80;2.10;;;;;;;16.70;100.00;99665.69;5133070;27;20212;-81
2022/06/14 07:34:07;;;;;;;6.10;2.00;;;;;;;16.65;100.00;99657.13;5132856;28;20225;-81
2022/06/14 07:36:49;;;;;;;6.83;2.00;;;;;;;16.91;100.00;99661.25;5130730;28;20214;-81
2022/06/14 07:39:24;;;;;;;5.93;2.07;;;;;;;17.12;100.00;99672.00;5130240;28;20213;-81
2022/06/14 07:42:00;;;;;;;2.90;1.83;;;;;;;17.12;100.00;99664.84;5127581;28;20198;-81
2022/06/14 07:44:35;;;;;;;4.03;1.70;;;;;;;17.36;100.00;99667.28;5136188;28;20190;-81
2022/06/14 07:47:11;;;;;;;4.23;1.80;;;;;;;17.58;100.00;99662.81;5130068;28;20213;-81
2022/06/14 07:49:53;;;;;;;5.27;1.70;;;;;;;17.74;100.00;99671.25;5133185;27;20277;-80
2022/06/14 07:52:30;;;;;;;5.70;1.60;;;;;;;17.89;100.00;99667.25;5134755;28;20198;-81
2022/06/14 07:55:06;;;;;;;6.47;1.57;;;;;;;17.92;100.00;99669.66;5131066;28;20781;-81
2022/06/14 07:57:41;;;;;;;5.73;1.77;;;;;;;18.12;100.00;99661.72;5135996;28;20285;-82
2022/06/14 08:03:11;;;;;;;3.60;1.53;;;;;;;18.29;100.00;99658.44;5135870;28;20190;-81
2022/06/14 08:05:45;;;;;;;2.57;1.57;;;;;;;18.52;100.00;99664.44;5135223;28;20201;-81
2022/06/14 08:08:21;;;;;;;3.47;1.43;;;;;;;18.57;100.00;99648.78;5132608;28;20693;-81
2022/06/14 08:10:53;;;;;;;4.50;1.40;;;;;;;18.72;100.00;99651.94;5128074;28;20193;-81
2022/06/14 08:13:26;;;;;;;5.47;1.83;;;;;;;18.24;100.00;99652.63;5069811;28;20192;-81
2022/06/14 08:15:59;;;;;;;7.07;1.87;;;;;;;18.50;100.00;99658.34;5067029;28;20223;-81
2022/06/14 08:18:35;;;;;;;3.37;1.60;;;;;;;18.50;97.28;99664.56;5069551;28;20450;-81
2022/06/14 08:21:09;;;;;;;4.50;1.40;;;;;;;18.63;96.00;99650.09;5072291;28;20231;-81
2022/06/14 08:23:44;;;;;;;5.63;1.70;;;;;;;18.67;94.58;99656.88;5070507;28;20258;-82
2022/06/14 08:26:19;;;;;;;5.43;1.70;;;;;;;18.78;89.46;99654.94;5071020;28;20200;-82
2022/06/14 08:28:52;;;;;;;6.23;1.70;;;;;;;18.95;81.16;99658.78;5071507;28;20805;-81
2022/06/14 08:31:28;;;;;;;4.90;1.50;;;;;;;18.92;83.76;99655.53;5099360;28;20194;-82
2022/06/14 08:34:46;;;;;;;2.47;1.43;;;;;;;19.03;83.92;99658.94;5140051;27;20536;-81
2022/06/14 08:37:22;;;;;;;4.43;1.60;;;;;;;19.25;81.48;99652.44;5133696;27;20219;-81
2022/06/14 08:39:57;;;;;;;4.77;1.80;;;;;;;19.26;81.07;99647.91;5134757;28;20200;-81
2022/06/14 08:42:31;;;;;;;5.00;1.80;;;;;;;18.58;83.51;99656.69;5134257;27;20190;-81
2022/06/14 08:45:03;;;;;;;4.70;1.60;;;;;;;18.82;82.21;99650.16;5136163;27;20202;-81
2022/06/14 08:48:05;;;;;;;3.27;1.40;;;;;;;19.35;84.48;99647.91;5129338;27;20214;-81
2022/06/14 08:51:05;;;;;;;4.27;1.73;;;;;;;19.80;79.77;99650.03;5124456;27;20202;-81
2022/06/14 08:54:07;;;;;;;3.67;1.77;;;;;;;19.51;78.22;99650.03;5131709;27;20225;-81
2022/06/14 08:57:04;;;;;;;3.13;1.40;;;;;;;19.71;81.62;99649.06;5131784;27;20217;-81
2022/06/14 09:00:12;;;;;;;4.83;1.70;;;;;;;19.47;74.70;99642.38;5131481;27;20277;-80
2022/06/14 09:03:26;;;;;;;4.30;1.50;;;;;;;19.50;71.48;99642.97;5131889;27;20195;-81
2022/06/14 09:06:38;;;;;;;4.37;1.57;;;;;;;19.65;68.20;99643.41;5126365;27;20186;-81
2022/06/14 09:09:35;;;;;;;4.43;1.73;;;;;;;19.86;66.64;99635.97;5109381;27;20191;-81
2022/06/14 09:12:41;;;;;;;4.47;1.60;;;;;;;19.16;69.47;99637.19;5131045;27;20198;-80
2022/06/14 09:15:39;;;;;;;5.33;1.63;;;;;;;19.30;69.94;99630.53;5131577;27;20277;-80
2022/06/14 09:18:18;;;;;;;3.43;1.40;;;;;;;19.46;69.38;99636.16;5103062;28;20290;-82
2022/06/14 09:21:09;;;;;;;5.40;1.73;;;;;;;19.53;64.08;99637.31;5097576;28;20202;-81
2022/06/14 09:23:47;;;;;;;3.83;1.40;;;;;;;19.41;65.03;99631.25;5102057;28;20207;-80
2022/06/14 09:26:32;;;;;;;2.57;1.13;;;;;;;19.66;56.28;99635.19;5107439;28;20187;-80
2022/06/14 09:29:28;;;;;;;3.37;1.20;;;;;;;19.94;56.82;99635.25;5105053;28;20314;-81
2022/06/14 09:35:58;;;;;;;3.70;1.33;;;;;;;19.96;56.10;99626.03;5112901;28;20359;-80
2022/06/14 09:38:59;;;;;;;2.73;1.13;;;;;;;20.17;53.11;99620.47;5130716;27;20272;-80
2022/06/14 09:41:38;;;;;;;3.63;1.17;;;;;;;20.69;45.99;99623.47;5128608;27;20198;-81
2022/06/14 09:44:42;;;;;;;3.72;1.40;;;;;;;21.09;44.63;99619.50;5127083;27;20191;-81
2022/06/14 09:47:37;;;;;;;2.67;1.30;;;;;;;21.28;48.60;99619.38;5110774;28;20194;-81
2022/06/14 09:50:47;;;;;;;5.07;1.37;;;;;;;21.39;49.32;99612.91;5116847;27;20203;-81
2022/06/14 09:53:53;;;;;;;4.95;1.00;;;;;;;21.55;47.14;99618.44;5115122;28;20365;-80
2022/06/14 09:56:50;;;;;;;4.63;1.60;;;;;;;21.28;49.16;99614.00;5114566;28;20210;-81
2022/06/14 09:59:46;;;;;;;4.63;1.40;;;;;;;22.05;50.10;99606.09;5116773;28;20199;-80
2022/06/14 10:02:21;;;;;;;3.58;1.30;;;;;;;21.91;52.14;99600.28;5114293;28;20187;-81
2022/06/14 10:05:08;;;;;;;5.93;1.55;;;;;;;22.08;55.22;99600.41;5111397;28;20202;-81
2022/06/14 10:07:55;;;;;;;3.25;1.30;;;;;;;22.43;51.33;99589.44;5115631;28;20198;-81
2022/06/14 10:10:46;;;;;;;4.13;1.40;;;;;;;22.42;48.81;99592.28;5112283;28;20205;-81
2022/06/14 10:13:53;;;;;;;5.03;1.40;;;;;;;22.66;47.99;99586.94;5116290;28;20237;-81
2022/06/14 10:16:36;;;;;;;4.40;1.42;;;;;;;22.80;48.73;99590.88;5112600;28;20207;-81
2022/06/14 10:19:25;;;;;;;4.03;1.30;;;;;;;23.12;47.67;99590.94;5115063;28;20190;-81
2022/06/14 10:22:02;;;;;;;3.53;1.40;;;;;;;23.46;45.97;99595.34;5115716;28;20198;-81
2022/06/14 10:24:38;;;;;;;4.95;1.55;;;;;;;23.23;45.77;99591.63;5116613;28;20195;-81
2022/06/14 10:30:20;;;;;;;4.50;1.45;;;;;;;23.61;45.73;99590.13;5116516;28;20206;-81
2022/06/14 10:33:24;;;;;;;2.33;1.30;;;;;;;23.84;43.55;99582.16;5116154;28;20229;-81
2022/06/14 10:36:02;;;;;;;3.08;1.40;;;;;;;22.79;46.78;99579.22;5112105;28;20202;-81
2022/06/14 10:39:03;;;;;;;3.97;1.33;;;;;;;23.39;43.00;99572.72;5111621;28;20195;-81
2022/06/14 10:41:39;;;;;;;4.80;1.50;;;;;;;23.48;43.01;99577.09;5099164;28;20274;-81
2022/06/14 10:44:26;;;;;;;3.47;1.42;;;;;;;24.03;41.82;99579.03;5115600;28;20199;-82
2022/06/14 10:47:03;;;;;;;3.03;1.20;;;;;;;24.30;41.08;99566.06;5113191;28;20203;-82
2022/06/14 10:49:49;;;;;;;2.65;1.40;;;;;;;24.67;41.35;99570.81;5111533;28;20194;-81
2022/06/14 10:52:37;;;;;;;3.58;1.27;;;;;;;24.69;42.82;99571.47;5108240;28;20641;-81
2022/06/14 10:55:29;;;;;;;3.20;1.40;;;;;;;24.38;41.75;99569.59;5115615;28;20288;-82
2022/06/14 10:58:23;;;;;;;5.43;1.60;;;;;;;23.41;42.67;99576.91;5115140;28;20199;-82
2022/06/14 11:01:01;;;;;;;6.18;1.45;;;;;;;23.79;40.98;99566.41;5112555;28;20269;-82
2022/06/14 11:03:49;;;;;;;2.85;1.55;;;;;;;24.47;38.88;99556.88;5112781;28;20202;-81
2022/06/14 11:06:55;;;;;;;5.93;1.58;;;;;;;24.57;38.23;99554.78;5112456;28;20207;-82
2022/06/14 11:09:37;;;;;;;4.25;1.40;;;;;;;25.53;37.10;99551.50;5115082;28;20217;-81
2022/06/14 11:12:26;;;;;;;3.42;1.38;;;;;;;25.18;37.25;99541.31;5110067;28;20197;-82
2022/06/14 11:15:03;;;;;;;6.35;1.48;;;;;;;25.50;37.22;99551.91;5115039;28;20298;-82
2022/06/14 11:18:00;;;;;;;3.83;1.50;;;;;;;25.72;38.03;99546.63;5114697;28;20229;-81
2022/06/14 11:20:43;;;;;;;2.67;1.30;;;;;;;26.38;35.24;99540.25;5109591;28;20256;-82
2022/06/14 11:23:18;;;;;;;4.63;1.48;;;;;;;26.17;35.30;99532.00;5114558;28;20273;-81
2022/06/14 11:25:57;;;;;;;2.65;1.13;;;;;;;26.13;34.54;99530.69;5116902;27;20210;-82
2022/06/14 11:28:37;;;;;;;2.83;1.25;;;;;;;24.49;36.59;99530.44;5113161;28;20248;-82
2022/06/14 11:31:15;;;;;;;2.75;1.27;;;;;;;25.80;33.96;99524.81;5114291;28;20191;-82
2022/06/14 11:34:02;;;;;;;4.28;1.40;;;;;;;26.10;33.17;99533.78;5114794;28;20230;-82
2022/06/14 11:36:44;;;;;;;4.22;1.50;;;;;;;25.67;32.74;99528.13;5108544;28;20199;-81
2022/06/14 11:39:34;;;;;;;4.72;1.50;;;;;;;25.43;33.41;99531.09;5114843;28;20191;-81
2022/06/14 11:42:09;;;;;;;2.75;1.40;;;;;;;25.49;33.05;99516.81;5113575;28;20206;-81
2022/06/14 11:45:03;;;;;;;4.05;1.30;;;;;;;25.64;32.87;99521.22;5114801;28;20203;-81
2022/06/14 11:47:41;;;;;;;2.90;1.30;;;;;;;25.87;32.14;99512.19;5108754;28;20209;-81
2022/06/14 11:50:18;;;;;;;4.75;1.40;;;;;;;26.50;31.35;99508.81;5113067;27;20187;-81
2022/06/14 11:53:03;;;;;;;3.30;1.25;;;;;;;26.20;31.75;99504.47;5110034;28;20190;-81
2022/06/14 11:55:39;;;;;;;5.25;1.00;;;;;;;26.15;31.99;99506.88;5114576;28;20215;-81
2022/06/14 11:58:13;;;;;;;3.63;1.15;;;;;;;25.87;31.36;99504.03;5114358;28;20206;-81
2022/06/14 12:01:01;;;;;;;4.15;1.30;;;;;;;25.56;32.39;99504.16;5109881;28;20709;-81
2022/06/14 12:03:49;;;;;;;2.38;1.10;;;;;;;25.99;33.26;99497.09;5110272;28;20193;-81
2022/06/14 12:06:32;;;;;;;2.83;1.27;;;;;;;26.52;32.34;99489.59;5109873;28;20191;-81
2022/06/14 12:09:27;;;;;;;2.50;1.17;;;;;;;26.64;32.37;99487.22;5111675;28;20190;-81
2022/06/14 12:12:00;;;;;;;3.22;1.45;;;;;;;27.27;31.11;99493.66;5103117;28;20199;-81
2022/06/14 12:14:57;;;;;;;2.78;1.30;;;;;;;27.06;29.91;99492.66;5114597;27;20222;-81
2022/06/14 12:17:30;;;;;;;1.60;1.10;;;;;;;27.39;30.40;99492.91;5112984;28;20370;-81
2022/06/14 12:20:06;;;;;;;2.95;1.20;;;;;;;27.23;30.70;99490.50;5113842;28;20239;-81
2022/06/14 12:22:42;;;;;;;4.05;1.20;;;;;;;27.01;30.19;99486.94;5112710;28;20195;-81
2022/06/14 12:28:12;;;;;;;3.25;1.10;;;;;;;27.30;29.40;99476.94;5116213;27;20195;-81
2022/06/14 12:30:47;;;;;;;3.60;1.30;;;;;;;26.99;29.52;99478.13;5113646;28;20201;-81
2022/06/14 12:33:29;;;;;;;2.10;1.10;;;;;;;27.41;29.50;99478.25;5113869;28;20218;-81
2022/06/14 12:36:11;;;;;;;3.30;1.13;;;;;;;27.20;29.50;99471.00;5110378;28;20230;-81